createdAt,value
2023-04-30T00:02:00.366Z,4.55
2023-04-30T00:04:27.032Z,5.22
2023-04-30T00:06:53.892Z,5.43
2023-04-30T00:09:20.408Z,5.63
2023-04-30T00:11:46.872Z,6.40
2023-04-30T00:14:13.404Z,6.97
2023-04-30T00:16:39.941Z,7.47
2023-04-30T00:19:06.517Z,6.97
2023-04-30T00:21:33.683Z,7.43
2023-04-30T00:24:03.021Z,7.85
2023-04-30T00:26:29.659Z,7.28
2023-04-30T00:28:56.225Z,7.78
2023-04-30T00:31:22.861Z,6.60
2023-04-30T00:33:49.343Z,8.95
2023-04-30T00:36:15.825Z,10.07
2023-04-30T00:38:42.460Z,9.85
2023-04-30T00:41:09.085Z,10.98
2023-04-30T00:43:35.583Z,11.27
2023-04-30T00:46:03.986Z,11.27
2023-04-30T00:48:30.698Z,13.63
2023-04-30T00:50:57.288Z,14.68
2023-04-30T00:53:23.820Z,13.60
2023-04-30T00:55:50.409Z,11.48
2023-04-30T00:58:17.001Z,11.68
2023-04-30T01:00:47.195Z,12.07
2023-04-30T01:03:14.261Z,11.68
2023-04-30T01:05:40.845Z,11.15
2023-04-30T01:08:08.204Z,10.93
2023-04-30T01:10:53.279Z,10.77
2023-04-30T01:13:19.700Z,9.35
2023-04-30T01:15:48.056Z,9.35
2023-04-30T01:18:33.772Z,8.85
2023-04-30T01:21:02.494Z,8.50
2023-04-30T01:23:43.969Z,8.10
2023-04-30T01:26:13.228Z,8.50
2023-04-30T01:28:40.389Z,7.43
2023-04-30T01:31:18.145Z,6.40
2023-04-30T01:33:44.712Z,6.32
2023-04-30T01:36:11.256Z,6.82
2023-04-30T01:38:37.735Z,7.43
2023-04-30T01:41:13.540Z,7.22
2023-04-30T01:43:46.223Z,7.20
2023-04-30T01:46:19.439Z,6.38
2023-04-30T01:49:04.532Z,6.22
2023-04-30T01:51:35.991Z,6.47
2023-04-30T01:54:06.000Z,6.03
2023-04-30T01:56:35.311Z,4.97
2023-04-30T01:59:02.868Z,5.53
2023-04-30T02:01:30.822Z,6.55
2023-04-30T02:03:57.822Z,6.35
2023-04-30T02:06:28.811Z,6.50
2023-04-30T02:08:56.825Z,5.67
2023-04-30T02:11:26.268Z,5.75
2023-04-30T02:13:52.765Z,6.00
2023-04-30T02:16:19.266Z,5.32
2023-04-30T02:18:46.014Z,5.68
2023-04-30T02:21:12.632Z,6.13
2023-04-30T02:23:39.056Z,6.78
2023-04-30T02:26:05.537Z,6.22
2023-04-30T02:28:32.028Z,5.80
2023-04-30T02:30:58.551Z,5.72
2023-04-30T02:33:25.111Z,5.97
2023-04-30T02:35:51.647Z,6.68
2023-04-30T02:38:18.067Z,5.70
2023-04-30T02:40:44.552Z,5.63
2023-04-30T02:43:11.060Z,5.95
2023-04-30T02:45:37.556Z,5.90
2023-04-30T02:48:04.107Z,6.97
2023-04-30T02:50:30.833Z,6.32
2023-04-30T02:52:57.326Z,5.53
2023-04-30T02:55:23.904Z,5.47
2023-04-30T02:57:50.401Z,6.25
2023-04-30T03:00:17.662Z,6.38
2023-04-30T03:02:44.376Z,6.28
2023-04-30T03:05:11.375Z,6.68
2023-04-30T03:07:37.867Z,6.80
2023-04-30T03:10:04.427Z,6.50
2023-04-30T03:12:30.953Z,5.43
2023-04-30T03:14:57.696Z,6.13
2023-04-30T03:17:24.862Z,6.85
2023-04-30T03:19:51.687Z,5.55
2023-04-30T03:22:23.787Z,6.28
2023-04-30T03:24:50.248Z,6.22
2023-04-30T03:27:17.062Z,6.43
2023-04-30T03:29:43.547Z,7.13
2023-04-30T03:32:10.175Z,6.80
2023-04-30T03:34:36.721Z,6.97
2023-04-30T03:37:04.018Z,6.57
2023-04-30T03:39:30.549Z,5.75
2023-04-30T03:41:56.997Z,7.07
2023-04-30T03:44:23.459Z,6.40
2023-04-30T03:46:50.006Z,6.05
2023-04-30T03:49:16.702Z,6.18
2023-04-30T03:51:43.287Z,5.70
2023-04-30T03:54:10.441Z,6.82
2023-04-30T03:56:37.375Z,6.40
2023-04-30T03:59:03.876Z,5.85
2023-04-30T04:01:30.908Z,7.10
2023-04-30T04:03:57.493Z,6.97
2023-04-30T04:06:24.293Z,7.18
2023-04-30T04:08:50.825Z,7.45
2023-04-30T04:11:17.356Z,8.32
2023-04-30T04:13:43.839Z,8.27
2023-04-30T04:16:11.357Z,7.80
2023-04-30T04:18:37.840Z,7.82
2023-04-30T04:21:04.469Z,8.15
2023-04-30T04:23:30.998Z,7.80
2023-04-30T04:25:57.691Z,8.32
2023-04-30T04:28:24.429Z,8.48
2023-04-30T04:30:51.232Z,8.27
2023-04-30T04:33:17.749Z,7.90
2023-04-30T04:35:44.293Z,8.15
2023-04-30T04:38:10.830Z,8.27
2023-04-30T04:40:38.397Z,9.70
2023-04-30T04:43:04.880Z,8.18
2023-04-30T04:45:32.019Z,8.25
2023-04-30T04:47:58.690Z,9.77
2023-04-30T04:50:25.255Z,10.02
2023-04-30T04:52:51.729Z,10.52
2023-04-30T04:55:19.072Z,11.75
2023-04-30T04:57:46.136Z,10.35
2023-04-30T05:00:13.211Z,10.85
2023-04-30T05:02:39.798Z,10.75
2023-04-30T05:05:07.005Z,11.82
2023-04-30T05:07:35.112Z,11.80
2023-04-30T05:10:01.593Z,11.25
2023-04-30T05:12:28.057Z,11.90
2023-04-30T05:14:54.521Z,11.65
2023-04-30T05:17:21.234Z,12.65
2023-04-30T05:19:50.678Z,13.90
2023-04-30T05:22:17.501Z,14.23
2023-04-30T05:24:43.999Z,13.68
2023-04-30T05:27:10.602Z,13.15
2023-04-30T05:29:37.092Z,13.77
2023-04-30T05:32:03.747Z,13.38
2023-04-30T05:34:30.288Z,13.18
2023-04-30T05:36:56.884Z,12.80
2023-04-30T05:39:23.421Z,13.55
2023-04-30T05:41:50.728Z,12.35
2023-04-30T05:44:18.048Z,12.65
2023-04-30T05:46:44.552Z,11.57
2023-04-30T05:49:11.457Z,11.88
2023-04-30T05:51:37.976Z,13.05
2023-04-30T05:54:04.409Z,12.23
2023-04-30T05:56:30.885Z,11.77
2023-04-30T05:58:57.379Z,12.60
2023-04-30T06:01:24.989Z,12.38
2023-04-30T06:03:52.452Z,12.65
2023-04-30T06:06:18.941Z,11.57
2023-04-30T06:08:45.773Z,11.35
2023-04-30T06:11:15.548Z,11.20
2023-04-30T06:13:42.081Z,11.45
2023-04-30T06:16:08.754Z,10.38
2023-04-30T06:18:35.674Z,10.38
2023-04-30T06:21:02.292Z,10.23
2023-04-30T06:23:28.785Z,10.05
2023-04-30T06:25:55.374Z,10.02
2023-04-30T06:28:21.956Z,10.38
2023-04-30T06:30:48.536Z,11.23
2023-04-30T06:33:14.961Z,10.30
2023-04-30T06:35:41.463Z,11.35
2023-04-30T06:38:07.939Z,10.05
2023-04-30T06:40:34.772Z,9.40
2023-04-30T06:43:01.359Z,9.98
2023-04-30T06:45:29.285Z,9.15
2023-04-30T06:47:55.962Z,10.07
2023-04-30T06:50:22.576Z,8.48
2023-04-30T12:05:24.033Z,6.13
2023-04-30T12:07:51.973Z,8.38
2023-04-30T12:10:21.671Z,6.75
2023-04-30T12:12:53.142Z,6.65
2023-04-30T12:15:23.256Z,5.40
2023-04-30T12:17:49.873Z,4.93
2023-04-30T12:20:16.569Z,4.05
2023-04-30T12:22:43.806Z,4.88
2023-04-30T12:25:20.278Z,5.35
2023-04-30T12:27:47.695Z,5.05
2023-04-30T12:30:14.348Z,5.20
2023-04-30T12:32:41.834Z,5.30
2023-04-30T12:35:09.072Z,6.15
2023-04-30T12:37:35.873Z,6.00
2023-04-30T12:40:02.706Z,6.72
2023-04-30T18:01:42.552Z,2.72
2023-04-30T18:04:09.443Z,2.50
2023-04-30T18:06:36.324Z,2.50
2023-04-30T18:09:03.946Z,2.70
2023-04-30T18:11:30.677Z,3.10
2023-04-30T18:13:57.197Z,3.00
2023-04-30T18:16:23.680Z,3.05
2023-04-30T18:18:50.734Z,3.40
2023-04-30T18:21:17.380Z,3.08
2023-04-30T18:23:43.866Z,3.25
2023-04-30T18:26:10.727Z,3.33
2023-04-30T18:28:37.816Z,3.17
2023-04-30T18:31:04.257Z,2.97
2023-04-30T18:33:31.057Z,4.22
2023-04-30T18:35:58.194Z,3.38
2023-04-30T18:38:24.761Z,4.95
2023-04-30T18:40:55.781Z,4.32
2023-04-30T18:43:22.984Z,3.90
2023-04-30T18:45:49.574Z,4.40
2023-04-30T18:48:18.998Z,5.03
2023-04-30T18:50:46.230Z,4.75
2023-04-30T18:53:12.669Z,5.10
2023-04-30T18:55:39.168Z,5.45
2023-04-30T18:58:05.713Z,7.40
2023-04-30T19:00:32.765Z,7.70
2023-04-30T19:02:59.228Z,8.27
2023-04-30T19:05:25.801Z,7.43
2023-04-30T19:07:52.382Z,8.50
2023-04-30T19:10:18.808Z,8.38
2023-04-30T19:12:45.523Z,7.03
2023-04-30T19:15:14.994Z,7.90
2023-04-30T19:17:42.256Z,6.75
2023-04-30T19:20:09.360Z,7.50
2023-04-30T19:22:36.107Z,7.03
2023-04-30T19:25:02.703Z,6.85
2023-04-30T19:27:29.218Z,6.95
2023-04-30T19:29:57.739Z,8.18
2023-04-30T19:32:24.489Z,9.30
2023-04-30T19:34:52.498Z,9.65
2023-04-30T19:37:18.978Z,9.15
2023-04-30T19:39:45.630Z,8.38
2023-04-30T19:42:12.095Z,10.20
2023-04-30T19:44:38.618Z,9.10
2023-04-30T19:47:05.049Z,9.40
2023-04-30T19:49:33.068Z,8.48
2023-04-30T19:51:59.483Z,9.73
2023-04-30T19:54:25.998Z,10.38
2023-04-30T19:56:56.329Z,10.05
2023-04-30T19:59:22.936Z,9.18
2023-04-30T20:01:49.491Z,9.07
2023-04-30T20:04:16.023Z,9.48
2023-04-30T20:06:42.637Z,11.85
2023-04-30T20:09:09.242Z,11.85
2023-04-30T20:11:35.831Z,11.30
2023-04-30T20:14:02.382Z,11.82
2023-04-30T20:16:28.836Z,11.65
2023-04-30T20:18:55.264Z,11.93
2023-04-30T20:21:21.759Z,11.40
2023-04-30T20:23:48.232Z,11.60
2023-04-30T20:26:14.757Z,11.60
2023-04-30T20:28:41.456Z,12.13
2023-04-30T20:31:09.733Z,12.18
2023-04-30T20:33:36.391Z,11.73
2023-04-30T20:36:03.181Z,12.23
2023-04-30T20:38:29.735Z,14.18
2023-04-30T20:40:56.842Z,14.60
2023-04-30T20:43:23.276Z,13.73
2023-04-30T20:45:49.871Z,13.85
2023-04-30T20:48:17.388Z,12.77
2023-04-30T20:50:44.057Z,13.38
2023-04-30T20:53:11.688Z,12.57
2023-04-30T20:55:38.276Z,12.52
2023-04-30T20:58:05.358Z,13.32
2023-04-30T21:00:31.807Z,13.57
2023-04-30T21:02:58.377Z,15.98
2023-04-30T21:05:25.160Z,14.43
2023-04-30T21:07:52.319Z,13.27
2023-04-30T21:10:18.786Z,13.52
2023-04-30T21:12:45.458Z,14.40
2023-04-30T21:15:12.100Z,14.73
2023-04-30T21:17:38.669Z,14.85
2023-04-30T21:20:05.476Z,15.32
2023-04-30T21:22:32.537Z,16.02
2023-04-30T21:24:58.974Z,18.08
2023-04-30T21:27:25.453Z,29.95
2023-04-30T21:29:51.927Z,41.17
2023-04-30T21:32:18.313Z,36.03
2023-04-30T21:34:45.164Z,34.45
2023-04-30T21:37:11.630Z,35.83
2023-04-30T21:39:38.138Z,35.92
2023-04-30T21:42:05.095Z,30.70
2023-04-30T21:44:32.740Z,27.13
2023-04-30T21:46:59.622Z,27.70
2023-04-30T21:49:26.281Z,29.55
2023-04-30T21:51:52.743Z,29.80
2023-04-30T21:54:19.358Z,29.20
2023-04-30T21:56:46.004Z,28.55
2023-04-30T21:59:12.606Z,32.67
2023-04-30T22:01:39.088Z,30.33
2023-04-30T22:04:05.696Z,31.13
2023-04-30T22:06:35.157Z,34.58
2023-04-30T22:09:01.763Z,34.15
2023-04-30T22:11:28.322Z,31.92
2023-04-30T22:13:54.783Z,32.65
2023-04-30T22:16:21.687Z,30.85
2023-04-30T22:18:48.235Z,33.17
2023-04-30T22:21:14.725Z,32.60
2023-04-30T22:23:41.434Z,30.85
2023-04-30T22:26:09.929Z,28.70
2023-04-30T22:28:37.371Z,27.88
2023-04-30T22:31:04.634Z,26.60
2023-04-30T22:33:35.815Z,25.35
2023-04-30T22:36:03.685Z,26.17
2023-04-30T22:38:30.591Z,25.92
2023-04-30T22:40:57.332Z,26.58
2023-04-30T22:43:24.170Z,23.80
2023-04-30T22:45:50.743Z,23.33
2023-04-30T22:48:17.830Z,23.83
2023-04-30T22:50:44.919Z,23.58
2023-04-30T22:53:11.595Z,23.50
2023-04-30T22:55:38.042Z,26.90
2023-04-30T22:58:04.472Z,25.80
2023-04-30T23:00:30.925Z,24.85
2023-04-30T23:02:57.496Z,24.05
2023-04-30T23:05:23.966Z,23.20
2023-04-30T23:07:50.450Z,22.77
2023-04-30T23:10:17.080Z,23.23
2023-04-30T23:12:43.859Z,23.80
2023-04-30T23:15:10.551Z,23.23
2023-04-30T23:17:37.130Z,21.33
2023-04-30T23:20:04.379Z,21.38
2023-04-30T23:22:31.538Z,24.38
2023-04-30T23:24:58.150Z,22.73
2023-04-30T23:27:24.729Z,23.17
2023-04-30T23:29:51.368Z,22.38
2023-04-30T23:32:18.344Z,23.42
2023-04-30T23:34:44.874Z,22.95
2023-04-30T23:37:11.283Z,22.83
2023-04-30T23:39:38.028Z,22.35
2023-04-30T23:42:11.329Z,22.58
2023-04-30T23:44:37.811Z,22.95
2023-04-30T23:47:05.813Z,22.75
2023-04-30T23:49:32.501Z,24.08
2023-04-30T23:51:59.017Z,22.00
2023-04-30T23:54:25.583Z,20.83
2023-04-30T23:56:52.872Z,21.85
2023-04-30T23:59:19.328Z,21.25
